Time;durP1;ratioP1;P1;durP2;ratioP2;P2;SDS_P1;SDS_P2;PMS_P1;PMS_P2;Temp;Humidity;BMP_temperature;BMP_pressure;BME280_temperature;BME280_humidity;BME280_pressure;Samples;Min_cycle;Max_cycle;Signal;HPM_P1;HPM_P2
2022/11/09 00:00:42;;;;;;;22.20;21.40;;;;;;;11.56;100.00;100343.69;4995609;28;20437;-48
2022/11/09 00:03:11;;;;;;;22.60;21.60;;;;;;;11.57;100.00;100345.31;4995563;28;21126;-45
2022/11/09 00:05:39;;;;;;;23.20;22.13;;;;;;;11.56;100.00;100347.19;4995362;28;20524;-45
2022/11/09 00:08:08;;;;;;;22.97;21.93;;;;;;;11.57;100.00;100354.16;4995618;28;20521;-51
2022/11/09 00:10:36;;;;;;;24.47;22.70;;;;;;;11.58;100.00;100346.97;4995480;28;20437;-54
2022/11/09 00:13:04;;;;;;;23.27;22.40;;;;;;;11.58;100.00;100349.66;4995193;28;20464;-51
2022/11/09 00:15:32;;;;;;;23.67;22.57;;;;;;;11.60;100.00;100350.25;4994730;28;20469;-49
2022/11/09 00:18:01;;;;;;;24.30;23.23;;;;;;;11.61;100.00;100344.72;4995175;28;20883;-49
2022/11/09 00:20:30;;;;;;;23.83;22.83;;;;;;;11.63;100.00;100353.31;5002961;28;21019;-51
2022/11/09 00:22:58;;;;;;;24.53;23.50;;;;;;;11.66;100.00;100357.41;5012791;28;20946;-53
2022/11/09 00:25:25;;;;;;;25.60;24.13;;;;;;;11.71;100.00;100359.50;5011581;28;20461;-50
2022/11/09 00:27:53;;;;;;;25.40;24.20;;;;;;;11.73;100.00;100357.41;5013120;28;20971;-50
2022/11/09 00:30:21;;;;;;;26.10;25.07;;;;;;;11.74;100.00;100361.75;5014945;28;20445;-53
2022/11/09 00:32:48;;;;;;;25.27;24.17;;;;;;;11.75;100.00;100355.34;5014630;28;20433;-54
2022/11/09 00:35:16;;;;;;;25.87;24.87;;;;;;;11.75;100.00;100358.00;5014218;28;20465;-50
2022/11/09 00:37:45;;;;;;;25.00;24.00;;;;;;;11.73;100.00;100350.22;5014501;28;20878;-49
2022/11/09 00:40:13;;;;;;;24.83;23.83;;;;;;;11.73;100.00;100354.75;5014511;28;20469;-46
2022/11/09 00:42:40;;;;;;;24.33;23.27;;;;;;;11.72;100.00;100355.75;5014113;28;20842;-51
2022/11/09 00:45:08;;;;;;;24.97;23.73;;;;;;;11.71;100.00;100356.81;5014152;28;20465;-49
2022/11/09 00:47:36;;;;;;;25.70;24.13;;;;;;;11.71;100.00;100348.81;5014367;28;20452;-51
2022/11/09 00:50:04;;;;;;;24.80;23.80;;;;;;;11.75;100.00;100361.50;5014405;28;20437;-53
2022/11/09 00:52:32;;;;;;;25.70;24.60;;;;;;;11.79;100.00;100351.22;5014036;28;21004;-49
2022/11/09 00:55:01;;;;;;;25.17;23.77;;;;;;;11.81;100.00;100355.31;5013642;28;20464;-53
2022/11/09 00:57:28;;;;;;;25.40;24.40;;;;;;;11.83;100.00;100355.91;5014307;28;20484;-52
2022/11/09 00:59:56;;;;;;;26.27;24.80;;;;;;;11.85;100.00;100353.88;5014250;28;20437;-46
2022/11/09 01:02:23;;;;;;;25.00;24.00;;;;;;;11.88;100.00;100361.44;5014014;28;20437;-48
2022/11/09 01:04:51;;;;;;;25.70;24.50;;;;;;;11.91;100.00;100352.19;5013510;28;20535;-46
2022/11/09 01:07:19;;;;;;;25.23;24.30;;;;;;;11.94;100.00;100357.09;5012791;28;20539;-52
2022/11/09 01:09:46;;;;;;;26.37;25.03;;;;;;;11.98;100.00;100358.28;5013708;28;20539;-50
2022/11/09 01:12:15;;;;;;;25.73;24.53;;;;;;;12.00;100.00;100348.22;5013814;28;20441;-53
2022/11/09 01:14:43;;;;;;;26.63;25.27;;;;;;;12.02;100.00;100356.84;5013598;28;20465;-49
2022/11/09 01:17:10;;;;;;;25.93;24.83;;;;;;;12.00;100.00;100357.06;5013704;28;20535;-51
2022/11/09 01:19:38;;;;;;;26.53;25.30;;;;;;;11.99;100.00;100362.59;5013814;28;20441;-50
2022/11/09 01:22:06;;;;;;;26.07;25.00;;;;;;;11.98;100.00;100361.78;5016194;28;20433;-46
2022/11/09 01:24:33;;;;;;;26.60;25.00;;;;;;;11.97;100.00;100351.31;5031762;28;20600;-52
2022/11/09 01:27:01;;;;;;;26.47;24.93;;;;;;;11.96;100.00;100355.84;5033694;28;20449;-47
2022/11/09 01:29:30;;;;;;;26.23;25.10;;;;;;;11.94;100.00;100349.91;5033535;28;20937;-44
2022/11/09 01:31:58;;;;;;;27.30;26.07;;;;;;;11.92;100.00;100349.28;5033163;28;20841;-47
2022/11/09 01:34:27;;;;;;;26.23;25.10;;;;;;;11.91;100.00;100344.16;5033133;28;20428;-43
2022/11/09 01:36:55;;;;;;;27.10;26.00;;;;;;;11.90;100.00;100343.34;5033130;28;21035;-44
2022/11/09 01:39:22;;;;;;;28.50;26.93;;;;;;;11.87;100.00;100332.25;5033146;28;20436;-44
2022/11/09 01:41:50;;;;;;;27.90;26.33;;;;;;;11.83;100.00;100339.88;5033237;28;20507;-46
2022/11/09 01:44:19;;;;;;;27.47;26.37;;;;;;;11.81;100.00;100333.13;5032548;28;21104;-43
2022/11/09 01:46:53;;;;;;;27.63;26.17;;;;;;;11.77;100.00;100338.06;5056639;22;20483;-48
2022/11/09 01:49:31;;;;;;;28.10;26.73;;;;;;;11.74;100.00;100343.81;5029466;28;20952;-46
2022/11/09 01:52:03;;;;;;;27.90;26.57;;;;;;;11.72;100.00;100335.22;5032845;28;20424;-49
2022/11/09 01:54:36;;;;;;;27.47;26.33;;;;;;;11.68;100.00;100330.50;5032484;28;20870;-50
2022/11/09 01:57:09;;;;;;;27.77;26.37;;;;;;;11.66;100.00;100342.22;5032701;28;20476;-47
2022/11/09 01:59:41;;;;;;;27.33;26.07;;;;;;;11.63;100.00;100337.28;5032625;28;20459;-47
2022/11/09 02:02:10;;;;;;;27.40;26.33;;;;;;;11.62;100.00;100324.13;5032707;28;20428;-47
2022/11/09 02:04:41;;;;;;;27.67;26.50;;;;;;;11.57;100.00;100324.78;5032127;28;20460;-45
2022/11/09 02:07:09;;;;;;;28.33;27.13;;;;;;;11.55;100.00;100316.19;5032565;28;20501;-45
2022/11/09 02:09:41;;;;;;;28.10;26.90;;;;;;;11.51;100.00;100314.13;5032591;28;20431;-47
2022/11/09 02:12:10;;;;;;;28.57;27.27;;;;;;;11.50;100.00;100321.31;5032187;28;20436;-45
2022/11/09 02:14:39;;;;;;;30.43;28.97;;;;;;;11.47;100.00;100327.09;5032191;28;20456;-45
2022/11/09 02:17:07;;;;;;;28.80;27.33;;;;;;;11.46;100.00;100328.13;5031985;28;20530;-46
2022/11/09 02:19:36;;;;;;;30.13;28.60;;;;;;;11.45;100.00;100333.69;5032637;28;20432;-45
2022/11/09 02:22:05;;;;;;;29.73;28.30;;;;;;;11.44;100.00;100332.06;5040209;28;20429;-45
2022/11/09 02:24:33;;;;;;;29.50;27.90;;;;;;;11.44;100.00;100327.50;5050132;28;20800;-45
2022/11/09 02:27:01;;;;;;;30.80;29.30;;;;;;;11.45;100.00;100334.50;5052330;28;20455;-48
2022/11/09 02:29:37;;;;;;;30.60;29.20;;;;;;;11.46;100.00;100320.13;5052305;28;20427;-45
2022/11/09 02:32:09;;;;;;;31.73;30.37;;;;;;;11.50;100.00;100320.50;5051917;28;20473;-46
2022/11/09 02:34:37;;;;;;;31.30;29.90;;;;;;;11.51;100.00;100322.97;5051605;28;20451;-46
2022/11/09 02:37:06;;;;;;;32.60;31.07;;;;;;;11.53;100.00;100325.41;5051726;28;20471;-44
2022/11/09 02:39:34;;;;;;;32.13;30.20;;;;;;;11.56;100.00;100325.00;5052179;28;20435;-46
2022/11/09 02:42:05;;;;;;;32.30;30.60;;;;;;;11.59;100.00;100319.22;5051838;28;20480;-45
2022/11/09 02:44:41;;;;;;;32.13;30.63;;;;;;;11.63;100.00;100321.28;5051549;28;20454;-46
2022/11/09 02:47:09;;;;;;;32.67;30.87;;;;;;;11.70;100.00;100321.28;5051839;28;20543;-47
2022/11/09 02:49:36;;;;;;;31.53;30.23;;;;;;;11.76;100.00;100319.59;5051895;28;20993;-48
2022/11/09 02:52:05;;;;;;;34.30;32.27;;;;;;;11.81;100.00;100322.44;5051679;28;20436;-47
2022/11/09 02:54:33;;;;;;;33.70;32.10;;;;;;;11.85;100.00;100313.78;5051314;28;20871;-47
2022/11/09 02:57:01;;;;;;;33.67;32.03;;;;;;;11.90;100.00;100319.28;5051653;28;20532;-50
2022/11/09 02:59:28;;;;;;;34.47;32.60;;;;;;;11.94;100.00;100315.16;5051689;28;20435;-48
2022/11/09 03:01:56;;;;;;;33.00;31.30;;;;;;;11.97;100.00;100312.06;5051352;28;20464;-48
2022/11/09 03:04:23;;;;;;;32.73;31.30;;;;;;;12.01;100.00;100313.25;5051014;28;20485;-49
2022/11/09 03:06:51;;;;;;;34.07;32.37;;;;;;;12.05;100.00;100316.31;5051698;28;20887;-47
2022/11/09 03:09:20;;;;;;;32.87;31.37;;;;;;;12.07;100.00;100307.03;5051444;28;20940;-49
2022/11/09 03:11:48;;;;;;;33.43;31.40;;;;;;;12.10;100.00;100311.13;5051551;28;20435;-45
2022/11/09 03:14:16;;;;;;;32.30;30.80;;;;;;;12.09;100.00;100310.34;5051152;28;20852;-46
2022/11/09 03:16:44;;;;;;;33.93;32.33;;;;;;;12.10;100.00;100311.94;5051292;28;20479;-45
2022/11/09 03:19:17;;;;;;;33.90;32.17;;;;;;;12.10;100.00;100313.81;5051663;28;20431;-46
2022/11/09 03:21:45;;;;;;;33.57;31.97;;;;;;;12.08;100.00;100302.53;5042445;28;20428;-48
2022/11/09 03:24:12;;;;;;;32.97;31.47;;;;;;;12.08;100.00;100306.03;5046578;28;20428;-46
2022/11/09 03:26:41;;;;;;;34.03;32.27;;;;;;;12.09;100.00;100302.31;5051541;28;20454;-45
2022/11/09 03:29:09;;;;;;;33.30;31.80;;;;;;;12.13;100.00;100313.38;5051592;28;20435;-47
2022/11/09 03:31:36;;;;;;;33.23;31.40;;;;;;;12.16;100.00;100310.25;5055423;28;20438;-47
2022/11/09 03:34:04;;;;;;;33.30;31.43;;;;;;;12.19;100.00;100315.19;5055466;28;20644;-46
2022/11/09 03:36:31;;;;;;;33.53;31.60;;;;;;;12.23;100.00;100308.38;5055080;28;20833;-48
2022/11/09 03:38:59;;;;;;;32.33;30.80;;;;;;;12.26;100.00;100321.31;5055305;28;20976;-47
2022/11/09 03:41:27;;;;;;;32.70;31.10;;;;;;;12.30;100.00;100305.66;5055045;28;20972;-50
2022/11/09 03:43:55;;;;;;;32.63;31.03;;;;;;;12.33;100.00;100300.69;5055382;28;20492;-44
2022/11/09 03:46:23;;;;;;;32.17;30.77;;;;;;;12.36;100.00;100310.13;5054451;28;20543;-49
2022/11/09 03:48:51;;;;;;;33.30;31.90;;;;;;;12.39;100.00;100312.38;5055353;28;20419;-45
2022/11/09 03:51:18;;;;;;;32.43;30.67;;;;;;;12.40;100.00;100314.81;5054853;28;20850;-46
2022/11/09 03:53:46;;;;;;;32.63;31.23;;;;;;;12.42;100.00;100320.78;5055300;28;20496;-46
2022/11/09 03:56:13;;;;;;;32.50;30.90;;;;;;;12.43;100.00;100317.03;5054510;28;21041;-45
2022/11/09 03:58:41;;;;;;;33.57;31.83;;;;;;;12.44;100.00;100302.66;5055066;28;20878;-48
2022/11/09 04:01:10;;;;;;;32.57;31.10;;;;;;;12.46;100.00;100311.25;5054786;28;20512;-46
2022/11/09 04:03:38;;;;;;;32.03;30.50;;;;;;;12.46;100.00;100313.94;5055018;28;20878;-49
2022/11/09 04:06:06;;;;;;;32.13;30.53;;;;;;;12.48;100.00;100311.06;5054245;28;20474;-48
2022/11/09 04:08:34;;;;;;;32.57;30.73;;;;;;;12.46;100.00;100316.59;5054758;28;20496;-46
2022/11/09 04:11:01;;;;;;;32.77;31.27;;;;;;;12.46;100.00;100311.25;5054342;28;20774;-44
2022/11/09 04:13:29;;;;;;;32.97;31.00;;;;;;;12.47;100.00;100304.88;5054612;28;21006;-47
2022/11/09 04:15:56;;;;;;;33.17;31.50;;;;;;;12.42;100.00;100312.75;5054254;28;20481;-48
2022/11/09 04:18:25;;;;;;;30.83;29.53;;;;;;;12.42;100.00;100326.13;5054396;28;20474;-47
2022/11/09 04:20:53;;;;;;;31.73;30.13;;;;;;;12.42;100.00;100322.63;5048839;28;20850;-46
2022/11/09 04:23:20;;;;;;;31.97;30.20;;;;;;;12.43;100.00;100318.88;5045931;28;20427;-48
2022/11/09 04:25:49;;;;;;;31.93;30.43;;;;;;;12.43;100.00;100317.03;5053950;28;20459;-47
2022/11/09 04:28:16;;;;;;;32.13;30.53;;;;;;;12.42;100.00;100318.09;5054521;28;20435;-50
2022/11/09 04:30:44;;;;;;;33.33;31.73;;;;;;;12.42;100.00;100311.94;5054214;28;20955;-48
2022/11/09 04:33:11;;;;;;;32.53;31.10;;;;;;;12.41;100.00;100305.75;5054258;28;20436;-48
2022/11/09 04:35:40;;;;;;;34.07;32.37;;;;;;;12.39;100.00;100304.34;5053757;28;20467;-46
2022/11/09 04:38:11;;;;;;;33.13;31.53;;;;;;;12.39;100.00;100315.03;5054502;28;21477;-48
2022/11/09 04:40:39;;;;;;;34.90;33.00;;;;;;;12.37;100.00;100307.22;5054103;28;20443;-48
2022/11/09 04:43:10;;;;;;;34.43;32.63;;;;;;;12.36;100.00;100300.25;5054135;28;20903;-47
2022/11/09 04:45:38;;;;;;;36.10;34.23;;;;;;;12.37;100.00;100304.53;5053597;28;20517;-48
2022/11/09 04:48:07;;;;;;;32.30;30.80;;;;;;;12.37;100.00;100301.88;5053863;28;20512;-46
2022/11/09 04:50:35;;;;;;;32.17;30.33;;;;;;;12.35;100.00;100301.28;5053830;28;20485;-46
2022/11/09 04:53:08;;;;;;;34.30;32.50;;;;;;;12.31;100.00;100312.63;5054020;28;20824;-47
2022/11/09 04:55:37;;;;;;;34.00;32.23;;;;;;;12.27;100.00;100314.94;5053469;28;20509;-45
2022/11/09 04:58:05;;;;;;;32.93;31.37;;;;;;;12.25;100.00;100318.84;5053673;28;20980;-46
2022/11/09 05:00:33;;;;;;;32.63;30.93;;;;;;;12.19;100.00;100316.00;5053837;28;20435;-48
2022/11/09 05:03:01;;;;;;;32.20;30.80;;;;;;;12.15;100.00;100319.34;5053362;28;20489;-47
2022/11/09 05:05:30;;;;;;;32.50;30.90;;;;;;;12.10;100.00;100319.97;5053453;28;20998;-49
2022/11/09 05:07:57;;;;;;;32.33;30.77;;;;;;;12.07;100.00;100320.41;5053994;28;20447;-46
2022/11/09 05:10:26;;;;;;;32.53;30.93;;;;;;;12.06;100.00;100323.31;5053810;28;20477;-47
2022/11/09 05:12:57;;;;;;;31.80;30.10;;;;;;;12.03;100.00;100323.75;5053729;28;20473;-51
2022/11/09 05:15:25;;;;;;;32.97;31.07;;;;;;;12.02;100.00;100314.91;5053260;28;20467;-49
2022/11/09 05:17:53;;;;;;;33.00;31.40;;;;;;;12.04;100.00;100328.84;5053571;28;20474;-45
2022/11/09 05:20:21;;;;;;;33.77;31.77;;;;;;;12.05;100.00;100324.34;5047926;28;20444;-48
2022/11/09 05:25:35;;;;;;;32.40;31.00;;;;;;;12.07;100.00;100328.41;5052898;28;20991;-50
2022/11/09 05:28:03;;;;;;;34.20;32.40;;;;;;;12.09;100.00;100331.72;5053126;28;20795;-51
2022/11/09 05:30:30;;;;;;;34.40;32.60;;;;;;;12.10;100.00;100327.16;5053428;28;20496;-46
2022/11/09 05:32:58;;;;;;;34.00;32.40;;;;;;;12.12;100.00;100322.44;5053155;28;20465;-49
2022/11/09 05:35:25;;;;;;;34.23;32.40;;;;;;;12.11;100.00;100320.78;5052677;28;20456;-46
2022/11/09 05:37:53;;;;;;;34.27;32.57;;;;;;;12.09;100.00;100326.38;5053014;28;20455;-46
2022/11/09 05:40:21;;;;;;;34.60;32.90;;;;;;;12.07;100.00;100339.13;5052983;28;20481;-45
2022/11/09 05:42:50;;;;;;;34.17;32.43;;;;;;;12.03;100.00;100331.75;5053104;28;20428;-46
2022/11/09 05:45:18;;;;;;;34.83;33.13;;;;;;;12.01;100.00;100336.47;5052420;28;20471;-49
2022/11/09 05:48:07;;;;;;;34.40;32.80;;;;;;;12.01;100.00;100341.81;5052727;28;20494;-52
2022/11/09 05:50:34;;;;;;;35.57;33.90;;;;;;;12.00;100.00;100338.34;5052773;28;20443;-51
2022/11/09 05:53:02;;;;;;;34.83;32.70;;;;;;;12.02;100.00;100341.63;5051813;28;20477;-48
2022/11/09 05:55:30;;;;;;;34.73;32.57;;;;;;;12.01;100.00;100342.66;5052222;28;20493;-48
2022/11/09 05:57:59;;;;;;;35.60;33.80;;;;;;;12.03;100.00;100339.78;5052497;28;20513;-49
2022/11/09 06:00:27;;;;;;;35.10;33.33;;;;;;;12.05;100.00;100345.72;5052536;28;20944;-47
2022/11/09 06:03:01;;;;;;;34.73;32.93;;;;;;;12.03;100.00;100345.94;5052486;28;20427;-47
2022/11/09 06:05:29;;;;;;;34.70;32.60;;;;;;;12.02;100.00;100351.50;5052019;28;20539;-46
2022/11/09 06:08:02;;;;;;;34.70;33.07;;;;;;;12.01;100.00;100341.81;5052620;28;20504;-46
2022/11/09 06:10:29;;;;;;;35.43;33.40;;;;;;;11.97;100.00;100349.47;5052472;28;20489;-48
2022/11/09 06:12:58;;;;;;;35.40;33.40;;;;;;;11.95;100.00;100346.19;5052190;28;20431;-51
2022/11/09 06:15:26;;;;;;;33.60;32.00;;;;;;;11.93;100.00;100355.44;5051924;28;20463;-48
2022/11/09 06:17:54;;;;;;;35.10;33.20;;;;;;;11.89;100.00;100344.38;5052053;28;20455;-51
2022/11/09 06:20:22;;;;;;;34.93;33.10;;;;;;;11.85;100.00;100347.69;5046978;28;20435;-47
2022/11/09 06:22:54;;;;;;;34.90;33.10;;;;;;;11.82;100.00;100356.13;5043861;28;20489;-46
2022/11/09 06:25:30;;;;;;;34.17;32.27;;;;;;;11.80;100.00;100361.69;5051787;28;20554;-47
2022/11/09 06:27:59;;;;;;;35.17;33.13;;;;;;;11.80;100.00;100372.38;5052567;28;20542;-49
2022/11/09 06:30:27;;;;;;;34.93;32.70;;;;;;;11.77;100.00;100370.13;5052238;28;20840;-46
2022/11/09 06:32:58;;;;;;;35.50;33.40;;;;;;;11.80;100.00;100382.25;5052006;28;20430;-45
2022/11/09 06:35:26;;;;;;;35.30;33.37;;;;;;;11.83;100.00;100379.13;5051603;28;20459;-48
2022/11/09 06:37:56;;;;;;;35.83;33.33;;;;;;;11.86;100.00;100382.19;5052219;28;20451;-47
2022/11/09 06:40:23;;;;;;;35.67;33.43;;;;;;;11.88;100.00;100377.47;5051896;28;20528;-47
2022/11/09 06:42:51;;;;;;;35.27;33.10;;;;;;;11.91;100.00;100377.06;5051686;28;20442;-49
2022/11/09 06:45:20;;;;;;;34.60;32.80;;;;;;;11.92;100.00;100377.84;5051331;28;21053;-49
2022/11/09 06:47:48;;;;;;;35.50;33.40;;;;;;;11.92;100.00;100378.69;5051828;28;20463;-51
2022/11/09 06:50:15;;;;;;;36.20;33.60;;;;;;;11.92;100.00;100383.19;5051937;28;20536;-51
2022/11/09 06:52:43;;;;;;;36.83;34.53;;;;;;;11.92;100.00;100380.53;5051689;28;20439;-49
2022/11/09 06:55:11;;;;;;;35.83;33.80;;;;;;;11.90;100.00;100378.06;5051418;28;20529;-50
2022/11/09 06:57:38;;;;;;;34.93;32.93;;;;;;;11.88;100.00;100385.50;5051503;28;20451;-52
2022/11/09 07:00:07;;;;;;;35.00;33.20;;;;;;;11.83;100.00;100387.97;5051778;28;20470;-48
2022/11/09 07:02:36;;;;;;;36.57;34.13;;;;;;;11.83;100.00;100395.97;5051459;28;20481;-50
2022/11/09 07:05:04;;;;;;;35.90;33.90;;;;;;;11.80;100.00;100395.63;5051037;28;20463;-50
2022/11/09 07:07:32;;;;;;;35.87;33.67;;;;;;;11.78;100.00;100394.97;5051567;28;20497;-47
2022/11/09 07:09:59;;;;;;;35.37;33.57;;;;;;;11.78;100.00;100397.66;5051399;28;20439;-49
2022/11/09 07:12:28;;;;;;;36.00;34.00;;;;;;;11.79;100.00;100408.16;5051263;28;20916;-49
2022/11/09 07:14:56;;;;;;;35.77;33.87;;;;;;;11.77;100.00;100404.84;5050921;28;21006;-51
2022/11/09 07:17:23;;;;;;;36.60;34.47;;;;;;;11.78;100.00;100406.50;5051323;28;20463;-47
2022/11/09 07:19:52;;;;;;;36.90;34.70;;;;;;;11.81;100.00;100397.22;5049859;28;20471;-49
2022/11/09 07:22:20;;;;;;;37.87;35.80;;;;;;;11.82;100.00;100401.56;5039498;28;20425;-49
2022/11/09 07:24:47;;;;;;;35.87;33.60;;;;;;;11.81;100.00;100398.06;5050906;28;20458;-48
2022/11/09 07:27:15;;;;;;;36.27;33.87;;;;;;;11.82;100.00;100397.03;5051558;28;20455;-50
2022/11/09 07:29:43;;;;;;;36.77;34.43;;;;;;;11.85;100.00;100395.78;5051465;28;20839;-51
2022/11/09 07:32:10;;;;;;;36.80;34.60;;;;;;;11.86;100.00;100398.22;5051332;28;20477;-46
2022/11/09 07:34:38;;;;;;;35.70;33.43;;;;;;;11.88;100.00;100400.69;5050886;28;20455;-47
2022/11/09 07:37:07;;;;;;;35.67;33.47;;;;;;;11.89;100.00;100403.16;5051059;28;20456;-51
2022/11/09 07:39:34;;;;;;;34.50;32.73;;;;;;;11.92;100.00;100404.56;5051103;28;20471;-50
2022/11/09 07:42:02;;;;;;;34.93;33.03;;;;;;;11.91;100.00;100406.44;5051250;28;20493;-50
2022/11/09 07:44:29;;;;;;;35.00;33.30;;;;;;;11.91;100.00;100403.78;5050765;28;20455;-48
2022/11/09 07:46:57;;;;;;;36.80;34.60;;;;;;;11.92;100.00;100410.75;5051081;28;20459;-47
2022/11/09 07:49:25;;;;;;;35.00;33.17;;;;;;;11.95;100.00;100409.50;5051199;28;20427;-46
2022/11/09 07:51:52;;;;;;;35.87;33.40;;;;;;;11.96;100.00;100411.13;5050844;28;20443;-50
2022/11/09 07:54:21;;;;;;;36.07;33.93;;;;;;;12.00;100.00;100412.38;5050824;28;20435;-47
2022/11/09 07:56:49;;;;;;;35.70;33.60;;;;;;;12.07;100.00;100416.63;5051129;28;20597;-51
2022/11/09 07:59:16;;;;;;;34.23;32.33;;;;;;;12.15;100.00;100410.22;5051046;28;20818;-49
2022/11/09 08:01:44;;;;;;;35.33;33.20;;;;;;;12.25;100.00;100421.25;5063987;22;20483;-51
2022/11/09 08:04:11;;;;;;;36.13;34.03;;;;;;;12.33;100.00;100418.34;5022323;28;20432;-46
2022/11/09 08:06:39;;;;;;;35.40;33.60;;;;;;;12.42;100.00;100413.53;5031311;28;20463;-50
2022/11/09 08:09:07;;;;;;;36.30;34.40;;;;;;;12.48;100.00;100426.06;5031299;28;20489;-48
2022/11/09 08:11:36;;;;;;;35.10;33.30;;;;;;;12.56;100.00;100429.28;5030998;28;20503;-48
2022/11/09 08:14:03;;;;;;;35.03;33.23;;;;;;;12.61;100.00;100426.75;5031007;28;20495;-45
2022/11/09 08:16:31;;;;;;;35.30;33.20;;;;;;;12.66;100.00;100426.13;5032911;28;20460;-44
2022/11/09 08:19:04;;;;;;;35.37;33.43;;;;;;;12.72;100.00;100420.69;5034862;28;20416;-44
2022/11/09 08:21:32;;;;;;;35.67;33.20;;;;;;;12.78;100.00;100421.72;5021953;28;20468;-44
2022/11/09 08:23:59;;;;;;;34.20;32.23;;;;;;;12.86;100.00;100425.97;5028515;28;20428;-48
2022/11/09 08:26:27;;;;;;;35.47;33.47;;;;;;;12.86;100.00;100428.63;5034382;28;20529;-46
2022/11/09 08:28:56;;;;;;;34.03;32.30;;;;;;;12.95;100.00;100428.16;5034599;28;20824;-46
2022/11/09 08:31:23;;;;;;;35.00;32.90;;;;;;;12.98;100.00;100429.56;5034069;28;20538;-44
2022/11/09 08:33:51;;;;;;;35.17;33.47;;;;;;;13.06;100.00;100415.88;5034457;28;20432;-44
2022/11/09 08:36:18;;;;;;;34.10;32.10;;;;;;;13.16;100.00;100426.94;5034094;28;20456;-45
2022/11/09 08:38:46;;;;;;;34.27;32.40;;;;;;;13.18;100.00;100420.31;5034324;28;20444;-46
2022/11/09 08:41:14;;;;;;;34.23;32.33;;;;;;;13.21;100.00;100425.25;5033856;28;20893;-44
2022/11/09 08:43:41;;;;;;;35.63;33.37;;;;;;;13.34;100.00;100426.97;5034166;28;20925;-44
2022/11/09 08:46:10;;;;;;;34.13;32.20;;;;;;;13.48;100.00;100422.28;5033750;28;20498;-44
2022/11/09 08:48:38;;;;;;;35.20;32.97;;;;;;;13.55;100.00;100431.91;5034256;28;20429;-47
2022/11/09 08:51:06;;;;;;;34.30;32.70;;;;;;;13.64;100.00;100427.88;5033843;28;20650;-44
2022/11/09 08:53:33;;;;;;;34.63;32.77;;;;;;;13.75;100.00;100428.97;5034117;28;20439;-45
2022/11/09 08:56:01;;;;;;;36.03;34.13;;;;;;;13.84;100.00;100433.00;5033465;28;20579;-46
2022/11/09 08:58:29;;;;;;;35.03;32.50;;;;;;;13.81;100.00;100415.50;5033894;28;20980;-46
2022/11/09 09:00:57;;;;;;;34.00;32.50;;;;;;;13.84;100.00;100427.63;5033622;28;20916;-45
2022/11/09 09:03:26;;;;;;;35.73;33.37;;;;;;;13.87;100.00;100435.22;5034011;28;20530;-47
2022/11/09 09:05:53;;;;;;;34.53;32.77;;;;;;;13.86;100.00;100431.72;5033439;28;20464;-49
2022/11/09 09:08:21;;;;;;;34.70;32.90;;;;;;;13.80;100.00;100429.94;5033732;28;20436;-45
2022/11/09 09:10:50;;;;;;;35.40;33.60;;;;;;;13.86;100.00;100428.22;5033369;28;20488;-44
2022/11/09 09:13:21;;;;;;;35.30;33.43;;;;;;;13.85;100.00;100429.28;5034001;28;20439;-44
2022/11/09 09:15:49;;;;;;;35.07;33.17;;;;;;;13.86;100.00;100425.53;5033481;28;20559;-48
2022/11/09 09:18:16;;;;;;;33.87;31.77;;;;;;;13.93;100.00;100428.13;5033616;28;20926;-47
2022/11/09 09:20:46;;;;;;;34.17;32.00;;;;;;;13.99;100.00;100433.41;5027780;28;20486;-46
2022/11/09 09:23:14;;;;;;;34.43;32.30;;;;;;;14.14;100.00;100439.19;5025274;28;20428;-44
2022/11/09 09:25:42;;;;;;;31.83;30.33;;;;;;;14.22;100.00;100435.38;5033055;28;20460;-44
2022/11/09 09:28:10;;;;;;;32.07;30.30;;;;;;;14.22;100.00;100441.56;5032349;28;20446;-48
2022/11/09 09:30:37;;;;;;;31.77;30.27;;;;;;;14.22;100.00;100440.72;5033198;28;20921;-46
2022/11/09 09:33:05;;;;;;;31.50;30.10;;;;;;;14.47;100.00;100448.66;5033230;28;20929;-48
2022/11/09 09:35:33;;;;;;;33.37;31.07;;;;;;;14.45;100.00;100446.22;5033038;28;20526;-46
2022/11/09 09:38:02;;;;;;;31.03;29.43;;;;;;;14.50;100.00;100450.91;5033364;28;20479;-45
2022/11/09 09:40:34;;;;;;;30.97;29.27;;;;;;;14.53;100.00;100459.31;5033108;28;20476;-50
2022/11/09 09:43:03;;;;;;;30.60;29.03;;;;;;;14.63;100.00;100446.16;5033044;28;20433;-45
2022/11/09 09:45:34;;;;;;;31.23;29.23;;;;;;;14.65;100.00;100460.16;5032614;28;20472;-44
2022/11/09 09:48:13;;;;;;;30.60;29.00;;;;;;;14.54;100.00;100457.44;5033971;28;20493;-49
2022/11/09 09:50:48;;;;;;;29.37;27.87;;;;;;;14.66;100.00;100471.72;5033432;28;20775;-47
2022/11/09 09:53:26;;;;;;;31.57;29.30;;;;;;;14.60;100.00;100472.63;5033204;28;20839;-50
2022/11/09 09:55:59;;;;;;;29.47;27.73;;;;;;;14.66;100.00;100469.84;5032782;28;20468;-50
2022/11/09 09:58:29;;;;;;;29.30;27.23;;;;;;;14.68;100.00;100475.81;5032885;28;20843;-49
2022/11/09 10:01:00;;;;;;;29.97;28.10;;;;;;;14.77;100.00;100477.13;5032230;28;20985;-50
2022/11/09 10:03:27;;;;;;;28.60;26.77;;;;;;;14.84;100.00;100479.69;5032798;28;20459;-47
2022/11/09 10:06:02;;;;;;;27.73;26.27;;;;;;;14.83;100.00;100484.25;5032305;28;20464;-51
2022/11/09 10:08:39;;;;;;;27.63;26.07;;;;;;;14.68;100.00;100491.09;5032830;28;20423;-45
2022/11/09 10:11:22;;;;;;;27.40;25.67;;;;;;;14.81;100.00;100477.47;5032386;28;20448;-48
2022/11/09 10:14:09;;;;;;;28.00;26.27;;;;;;;14.86;100.00;100482.97;5032821;28;20771;-48
2022/11/09 10:16:45;;;;;;;27.30;25.07;;;;;;;14.77;100.00;100482.47;5032607;28;20501;-50
2022/11/09 10:19:34;;;;;;;26.43;24.93;;;;;;;14.91;100.00;100475.84;5032457;28;20462;-51
2022/11/09 10:22:10;;;;;;;26.50;24.90;;;;;;;14.99;100.00;100476.56;5021085;28;20547;-47
2022/11/09 10:24:48;;;;;;;25.40;24.20;;;;;;;15.02;100.00;100478.78;5031067;28;20463;-49
2022/11/09 10:27:37;;;;;;;25.20;23.53;;;;;;;15.10;100.00;100476.59;5032276;28;20456;-48
2022/11/09 10:30:13;;;;;;;24.80;23.47;;;;;;;15.14;100.00;100493.06;5032186;28;20436;-52
2022/11/09 10:32:43;;;;;;;24.23;22.90;;;;;;;15.09;100.00;100483.00;5031935;28;20448;-47
2022/11/09 10:35:18;;;;;;;24.30;22.77;;;;;;;15.05;100.00;100487.22;5031813;28;20542;-48
2022/11/09 10:37:48;;;;;;;23.60;22.20;;;;;;;15.04;100.00;100487.44;5032182;28;20482;-46
2022/11/09 10:40:22;;;;;;;22.87;21.70;;;;;;;15.12;100.00;100487.91;5032051;28;20505;-48
2022/11/09 10:42:53;;;;;;;22.87;21.40;;;;;;;15.10;100.00;100481.94;5031886;28;20961;-49
2022/11/09 10:45:29;;;;;;;21.90;20.90;;;;;;;15.12;100.00;100490.59;5031759;28;20872;-46
2022/11/09 10:47:57;;;;;;;21.37;20.20;;;;;;;15.13;100.00;100481.50;5032143;28;20430;-49
2022/11/09 10:50:30;;;;;;;22.10;20.80;;;;;;;15.21;100.00;100493.75;5031839;28;20490;-49
2022/11/09 10:53:09;;;;;;;20.77;19.90;;;;;;;15.16;100.00;100497.13;5031730;28;20502;-48
2022/11/09 10:55:49;;;;;;;21.80;20.43;;;;;;;15.17;100.00;100492.59;5031435;28;20475;-49
2022/11/09 10:58:25;;;;;;;20.13;19.23;;;;;;;15.09;100.00;100496.41;5031774;28;20466;-48
2022/11/09 11:01:02;;;;;;;21.53;19.30;;;;;;;15.03;100.00;100497.34;5031413;28;20534;-47
2022/11/09 11:03:32;;;;;;;20.00;18.90;;;;;;;15.02;100.00;100494.91;5031678;28;20420;-49
2022/11/09 11:06:01;;;;;;;19.20;18.20;;;;;;;14.96;100.00;100500.13;5031325;28;20821;-49
2022/11/09 11:08:33;;;;;;;19.80;18.60;;;;;;;14.79;100.00;100501.84;5031911;28;20428;-45
2022/11/09 11:11:21;;;;;;;18.77;17.70;;;;;;;14.74;100.00;100498.22;5031431;28;20522;-46
2022/11/09 11:14:17;;;;;;;20.80;19.10;;;;;;;14.73;100.00;100494.72;5031735;28;20499;-49